sensor_id;sensor_type;location;lat;lon;timestamp;P1;durP1;ratioP1;P2;durP2;ratioP2
59734;SDS011;64362;45.620;4.920;2022-12-29T00:01:21;4.20;;;3.28;;
59734;SDS011;64362;45.620;4.920;2022-12-29T00:03:46;5.68;;;3.80;;
59734;SDS011;64362;45.620;4.920;2022-12-29T00:06:12;4.32;;;3.67;;
59734;SDS011;64362;45.620;4.920;2022-12-29T00:08:38;5.88;;;3.88;;
59734;SDS011;64362;45.620;4.920;2022-12-29T00:11:10;5.03;;;3.47;;
59734;SDS011;64362;45.620;4.920;2022-12-29T00:13:38;6.75;;;3.83;;
59734;SDS011;64362;45.620;4.920;2022-12-29T00:16:21;5.25;;;3.15;;
59734;SDS011;64362;45.620;4.920;2022-12-29T00:18:47;4.88;;;3.60;;
59734;SDS011;64362;45.620;4.920;2022-12-29T00:21:14;4.32;;;3.22;;
59734;SDS011;64362;45.620;4.920;2022-12-29T00:23:59;7.63;;;3.78;;
59734;SDS011;64362;45.620;4.920;2022-12-29T00:26:43;4.80;;;3.40;;
59734;SDS011;64362;45.620;4.920;2022-12-29T00:29:27;4.93;;;3.30;;
59734;SDS011;64362;45.620;4.920;2022-12-29T00:32:16;4.88;;;3.38;;
59734;SDS011;64362;45.620;4.920;2022-12-29T00:35:00;4.57;;;2.97;;
59734;SDS011;64362;45.620;4.920;2022-12-29T00:37:41;4.57;;;3.28;;
59734;SDS011;64362;45.620;4.920;2022-12-29T00:40:27;7.95;;;3.53;;
59734;SDS011;64362;45.620;4.920;2022-12-29T00:43:11;4.38;;;3.05;;
59734;SDS011;64362;45.620;4.920;2022-12-29T00:46:03;4.45;;;3.20;;
59734;SDS011;64362;45.620;4.920;2022-12-29T00:48:29;4.60;;;3.40;;
59734;SDS011;64362;45.620;4.920;2022-12-29T00:51:13;4.75;;;3.05;;
59734;SDS011;64362;45.620;4.920;2022-12-29T00:53:39;3.28;;;2.83;;
59734;SDS011;64362;45.620;4.920;2022-12-29T00:56:04;4.55;;;3.35;;
59734;SDS011;64362;45.620;4.920;2022-12-29T00:58:30;4.35;;;3.13;;
59734;SDS011;64362;45.620;4.920;2022-12-29T01:01:02;4.05;;;3.38;;
59734;SDS011;64362;45.620;4.920;2022-12-29T01:03:28;3.65;;;2.95;;
59734;SDS011;64362;45.620;4.920;2022-12-29T01:05:54;3.85;;;3.05;;
59734;SDS011;64362;45.620;4.920;2022-12-29T01:08:20;6.07;;;4.07;;
59734;SDS011;64362;45.620;4.920;2022-12-29T01:10:45;5.63;;;3.45;;
59734;SDS011;64362;45.620;4.920;2022-12-29T01:13:11;5.85;;;3.50;;
59734;SDS011;64362;45.620;4.920;2022-12-29T01:15:36;7.60;;;3.92;;
59734;SDS011;64362;45.620;4.920;2022-12-29T01:18:02;4.18;;;3.45;;
59734;SDS011;64362;45.620;4.920;2022-12-29T01:20:28;4.05;;;3.20;;
59734;SDS011;64362;45.620;4.920;2022-12-29T01:22:55;4.85;;;3.38;;
59734;SDS011;64362;45.620;4.920;2022-12-29T01:25:21;5.65;;;3.55;;
59734;SDS011;64362;45.620;4.920;2022-12-29T01:27:46;4.07;;;3.25;;
59734;SDS011;64362;45.620;4.920;2022-12-29T01:30:11;4.80;;;3.78;;
59734;SDS011;64362;45.620;4.920;2022-12-29T01:32:37;4.80;;;3.60;;
59734;SDS011;64362;45.620;4.920;2022-12-29T01:35:03;4.72;;;3.80;;
59734;SDS011;64362;45.620;4.920;2022-12-29T01:37:29;7.50;;;4.10;;
59734;SDS011;64362;45.620;4.920;2022-12-29T01:39:54;4.78;;;3.65;;
59734;SDS011;64362;45.620;4.920;2022-12-29T01:42:22;5.65;;;3.97;;
59734;SDS011;64362;45.620;4.920;2022-12-29T01:44:56;5.88;;;3.97;;
59734;SDS011;64362;45.620;4.920;2022-12-29T01:47:28;5.05;;;3.60;;
59734;SDS011;64362;45.620;4.920;2022-12-29T01:49:57;6.32;;;3.75;;
59734;SDS011;64362;45.620;4.920;2022-12-29T01:52:24;5.40;;;3.38;;
59734;SDS011;64362;45.620;4.920;2022-12-29T01:54:52;5.85;;;3.85;;
59734;SDS011;64362;45.620;4.920;2022-12-29T01:57:21;5.97;;;4.15;;
59734;SDS011;64362;45.620;4.920;2022-12-29T01:59:51;6.15;;;4.00;;
59734;SDS011;64362;45.620;4.920;2022-12-29T02:02:21;5.50;;;4.32;;
59734;SDS011;64362;45.620;4.920;2022-12-29T02:04:46;6.00;;;4.40;;
59734;SDS011;64362;45.620;4.920;2022-12-29T02:07:20;4.93;;;3.47;;
59734;SDS011;64362;45.620;4.920;2022-12-29T02:09:50;6.85;;;4.63;;
59734;SDS011;64362;45.620;4.920;2022-12-29T02:12:20;6.30;;;4.32;;
59734;SDS011;64362;45.620;4.920;2022-12-29T02:14:47;6.72;;;4.70;;
59734;SDS011;64362;45.620;4.920;2022-12-29T02:17:41;6.32;;;4.43;;
59734;SDS011;64362;45.620;4.920;2022-12-29T02:23:09;7.10;;;4.47;;
59734;SDS011;64362;45.620;4.920;2022-12-29T02:33:33;5.88;;;4.70;;
59734;SDS011;64362;45.620;4.920;2022-12-29T02:36:45;6.78;;;4.80;;
59734;SDS011;64362;45.620;4.920;2022-12-29T02:39:21;6.18;;;4.72;;
59734;SDS011;64362;45.620;4.920;2022-12-29T02:44:49;6.85;;;4.72;;
59734;SDS011;64362;45.620;4.920;2022-12-29T02:50:02;5.82;;;4.70;;
59734;SDS011;64362;45.620;4.920;2022-12-29T02:52:37;7.13;;;4.95;;
59734;SDS011;64362;45.620;4.920;2022-12-29T02:55:05;6.35;;;4.95;;
59734;SDS011;64362;45.620;4.920;2022-12-29T02:57:35;6.55;;;4.88;;
59734;SDS011;64362;45.620;4.920;2022-12-29T03:00:05;6.93;;;4.47;;
59734;SDS011;64362;45.620;4.920;2022-12-29T03:02:44;7.53;;;4.88;;
59734;SDS011;64362;45.620;4.920;2022-12-29T03:10:55;7.05;;;5.68;;
59734;SDS011;64362;45.620;4.920;2022-12-29T03:13:34;7.25;;;4.57;;
59734;SDS011;64362;45.620;4.920;2022-12-29T03:16:37;6.07;;;4.80;;
59734;SDS011;64362;45.620;4.920;2022-12-29T03:19:09;6.88;;;4.78;;
59734;SDS011;64362;45.620;4.920;2022-12-29T03:21:38;6.10;;;4.85;;
59734;SDS011;64362;45.620;4.920;2022-12-29T03:24:30;7.30;;;5.13;;
59734;SDS011;64362;45.620;4.920;2022-12-29T03:26:58;5.90;;;4.25;;
59734;SDS011;64362;45.620;4.920;2022-12-29T03:29:28;8.63;;;5.13;;
59734;SDS011;64362;45.620;4.920;2022-12-29T03:31:56;6.53;;;4.90;;
59734;SDS011;64362;45.620;4.920;2022-12-29T03:34:22;5.22;;;4.15;;
59734;SDS011;64362;45.620;4.920;2022-12-29T03:36:51;6.00;;;4.60;;
59734;SDS011;64362;45.620;4.920;2022-12-29T03:39:18;6.65;;;4.93;;
59734;SDS011;64362;45.620;4.920;2022-12-29T03:41:46;6.35;;;4.47;;
59734;SDS011;64362;45.620;4.920;2022-12-29T03:44:15;6.70;;;5.00;;
59734;SDS011;64362;45.620;4.920;2022-12-29T03:46:40;5.72;;;4.47;;
59734;SDS011;64362;45.620;4.920;2022-12-29T03:49:06;6.57;;;5.25;;
59734;SDS011;64362;45.620;4.920;2022-12-29T03:51:31;6.70;;;4.63;;
59734;SDS011;64362;45.620;4.920;2022-12-29T03:53:57;6.85;;;4.90;;
59734;SDS011;64362;45.620;4.920;2022-12-29T03:56:23;6.30;;;4.80;;
59734;SDS011;64362;45.620;4.920;2022-12-29T03:58:49;8.20;;;4.95;;
59734;SDS011;64362;45.620;4.920;2022-12-29T04:01:28;6.80;;;4.90;;
59734;SDS011;64362;45.620;4.920;2022-12-29T04:03:54;5.75;;;5.15;;
59734;SDS011;64362;45.620;4.920;2022-12-29T04:06:19;6.93;;;4.78;;
59734;SDS011;64362;45.620;4.920;2022-12-29T04:08:49;5.80;;;4.55;;
59734;SDS011;64362;45.620;4.920;2022-12-29T04:11:15;7.10;;;5.20;;
59734;SDS011;64362;45.620;4.920;2022-12-29T04:13:41;6.38;;;4.82;;
59734;SDS011;64362;45.620;4.920;2022-12-29T04:16:08;6.13;;;4.85;;
59734;SDS011;64362;45.620;4.920;2022-12-29T04:18:35;7.18;;;4.85;;
59734;SDS011;64362;45.620;4.920;2022-12-29T04:21:00;6.95;;;4.90;;
59734;SDS011;64362;45.620;4.920;2022-12-29T04:23:29;8.32;;;4.95;;
59734;SDS011;64362;45.620;4.920;2022-12-29T04:25:56;6.20;;;4.65;;
59734;SDS011;64362;45.620;4.920;2022-12-29T04:28:21;7.55;;;4.75;;
59734;SDS011;64362;45.620;4.920;2022-12-29T04:30:53;5.97;;;4.55;;
59734;SDS011;64362;45.620;4.920;2022-12-29T04:33:29;8.63;;;4.70;;
59734;SDS011;64362;45.620;4.920;2022-12-29T04:35:56;6.28;;;3.97;;
59734;SDS011;64362;45.620;4.920;2022-12-29T04:38:23;6.50;;;4.53;;
59734;SDS011;64362;45.620;4.920;2022-12-29T04:40:49;6.40;;;4.28;;
59734;SDS011;64362;45.620;4.920;2022-12-29T04:43:17;5.55;;;4.40;;
59734;SDS011;64362;45.620;4.920;2022-12-29T04:46:06;8.57;;;5.07;;
59734;SDS011;64362;45.620;4.920;2022-12-29T04:48:41;6.65;;;4.43;;
59734;SDS011;64362;45.620;4.920;2022-12-29T04:51:28;7.40;;;4.25;;
59734;SDS011;64362;45.620;4.920;2022-12-29T04:53:54;7.65;;;4.90;;
59734;SDS011;64362;45.620;4.920;2022-12-29T04:56:19;5.40;;;4.32;;
59734;SDS011;64362;45.620;4.920;2022-12-29T04:58:46;6.40;;;4.35;;
59734;SDS011;64362;45.620;4.920;2022-12-29T05:01:12;6.40;;;4.10;;
59734;SDS011;64362;45.620;4.920;2022-12-29T05:03:38;7.05;;;4.68;;
59734;SDS011;64362;45.620;4.920;2022-12-29T05:06:04;5.45;;;4.28;;
59734;SDS011;64362;45.620;4.920;2022-12-29T05:08:30;6.20;;;4.05;;
59734;SDS011;64362;45.620;4.920;2022-12-29T05:10:58;5.15;;;4.07;;
59734;SDS011;64362;45.620;4.920;2022-12-29T05:13:23;5.82;;;4.20;;
59734;SDS011;64362;45.620;4.920;2022-12-29T05:15:50;5.43;;;4.45;;
59734;SDS011;64362;45.620;4.920;2022-12-29T05:18:16;6.35;;;3.97;;
59734;SDS011;64362;45.620;4.920;2022-12-29T05:20:41;5.38;;;4.13;;
59734;SDS011;64362;45.620;4.920;2022-12-29T05:23:08;5.05;;;4.00;;
59734;SDS011;64362;45.620;4.920;2022-12-29T05:25:33;5.57;;;4.55;;
59734;SDS011;64362;45.620;4.920;2022-12-29T05:28:14;5.68;;;4.20;;
59734;SDS011;64362;45.620;4.920;2022-12-29T05:30:58;4.80;;;4.05;;
59734;SDS011;64362;45.620;4.920;2022-12-29T05:33:24;6.72;;;4.28;;
59734;SDS011;64362;45.620;4.920;2022-12-29T05:35:50;5.00;;;4.18;;
59734;SDS011;64362;45.620;4.920;2022-12-29T05:38:17;7.97;;;4.40;;
59734;SDS011;64362;45.620;4.920;2022-12-29T05:40:43;5.68;;;4.63;;
59734;SDS011;64362;45.620;4.920;2022-12-29T05:43:29;5.55;;;3.85;;
59734;SDS011;64362;45.620;4.920;2022-12-29T05:46:12;5.47;;;3.97;;
59734;SDS011;64362;45.620;4.920;2022-12-29T05:48:48;4.68;;;3.80;;
59734;SDS011;64362;45.620;4.920;2022-12-29T05:53:51;6.05;;;4.22;;
59734;SDS011;64362;45.620;4.920;2022-12-29T05:56:16;6.10;;;4.15;;
59734;SDS011;64362;45.620;4.920;2022-12-29T05:58:43;5.30;;;4.05;;
59734;SDS011;64362;45.620;4.920;2022-12-29T06:01:09;5.28;;;4.00;;
59734;SDS011;64362;45.620;4.920;2022-12-29T06:03:35;5.05;;;3.85;;
59734;SDS011;64362;45.620;4.920;2022-12-29T06:06:00;5.88;;;3.90;;
59734;SDS011;64362;45.620;4.920;2022-12-29T06:08:26;6.07;;;4.18;;
59734;SDS011;64362;45.620;4.920;2022-12-29T06:10:52;6.80;;;4.00;;
59734;SDS011;64362;45.620;4.920;2022-12-29T06:13:17;5.22;;;4.07;;
59734;SDS011;64362;45.620;4.920;2022-12-29T06:15:47;5.45;;;3.88;;
59734;SDS011;64362;45.620;4.920;2022-12-29T06:18:14;5.93;;;4.25;;
59734;SDS011;64362;45.620;4.920;2022-12-29T06:20:40;4.93;;;3.60;;
59734;SDS011;64362;45.620;4.920;2022-12-29T06:23:07;6.38;;;3.88;;
59734;SDS011;64362;45.620;4.920;2022-12-29T06:25:33;5.05;;;3.70;;
59734;SDS011;64362;45.620;4.920;2022-12-29T06:27:59;5.10;;;3.58;;
59734;SDS011;64362;45.620;4.920;2022-12-29T06:30:25;5.28;;;3.70;;
59734;SDS011;64362;45.620;4.920;2022-12-29T06:32:50;5.05;;;3.53;;
59734;SDS011;64362;45.620;4.920;2022-12-29T06:35:17;5.65;;;4.47;;
59734;SDS011;64362;45.620;4.920;2022-12-29T06:37:49;5.88;;;3.83;;
59734;SDS011;64362;45.620;4.920;2022-12-29T06:40:14;5.25;;;3.58;;
59734;SDS011;64362;45.620;4.920;2022-12-29T06:42:58;8.02;;;3.80;;
59734;SDS011;64362;45.620;4.920;2022-12-29T06:45:56;4.90;;;3.70;;
59734;SDS011;64362;45.620;4.920;2022-12-29T06:48:22;5.57;;;4.13;;
59734;SDS011;64362;45.620;4.920;2022-12-29T06:50:47;5.80;;;3.75;;
59734;SDS011;64362;45.620;4.920;2022-12-29T06:53:13;6.05;;;4.55;;
59734;SDS011;64362;45.620;4.920;2022-12-29T06:55:38;5.20;;;3.70;;
59734;SDS011;64362;45.620;4.920;2022-12-29T06:58:04;4.45;;;3.50;;
59734;SDS011;64362;45.620;4.920;2022-12-29T07:00:29;5.22;;;3.85;;
59734;SDS011;64362;45.620;4.920;2022-12-29T07:02:55;5.80;;;3.50;;
59734;SDS011;64362;45.620;4.920;2022-12-29T07:05:23;4.80;;;3.15;;
59734;SDS011;64362;45.620;4.920;2022-12-29T07:07:50;5.25;;;3.47;;
59734;SDS011;64362;45.620;4.920;2022-12-29T07:10:15;4.30;;;3.80;;
59734;SDS011;64362;45.620;4.920;2022-12-29T07:12:41;4.43;;;3.53;;
59734;SDS011;64362;45.620;4.920;2022-12-29T07:15:06;4.53;;;3.60;;
59734;SDS011;64362;45.620;4.920;2022-12-29T07:17:32;6.68;;;3.72;;
59734;SDS011;64362;45.620;4.920;2022-12-29T07:19:58;4.82;;;3.55;;
59734;SDS011;64362;45.620;4.920;2022-12-29T07:22:23;4.75;;;3.40;;
59734;SDS011;64362;45.620;4.920;2022-12-29T07:24:49;5.50;;;3.53;;
59734;SDS011;64362;45.620;4.920;2022-12-29T07:27:14;4.57;;;3.42;;
59734;SDS011;64362;45.620;4.920;2022-12-29T07:29:40;5.13;;;3.35;;
59734;SDS011;64362;45.620;4.920;2022-12-29T07:32:05;5.63;;;3.42;;
59734;SDS011;64362;45.620;4.920;2022-12-29T07:34:31;5.93;;;3.60;;
59734;SDS011;64362;45.620;4.920;2022-12-29T07:36:56;4.93;;;3.50;;
59734;SDS011;64362;45.620;4.920;2022-12-29T07:39:22;4.45;;;3.22;;
59734;SDS011;64362;45.620;4.920;2022-12-29T07:41:47;4.93;;;3.40;;
59734;SDS011;64362;45.620;4.920;2022-12-29T07:44:16;5.97;;;3.45;;
59734;SDS011;64362;45.620;4.920;2022-12-29T07:47:00;5.57;;;3.60;;
59734;SDS011;64362;45.620;4.920;2022-12-29T07:49:26;6.13;;;3.35;;
59734;SDS011;64362;45.620;4.920;2022-12-29T07:51:51;4.78;;;3.25;;
59734;SDS011;64362;45.620;4.920;2022-12-29T07:54:17;5.80;;;3.38;;
59734;SDS011;64362;45.620;4.920;2022-12-29T07:56:47;5.60;;;3.28;;
59734;SDS011;64362;45.620;4.920;2022-12-29T07:59:13;4.88;;;3.10;;
59734;SDS011;64362;45.620;4.920;2022-12-29T08:01:38;5.22;;;3.15;;
59734;SDS011;64362;45.620;4.920;2022-12-29T08:04:04;6.05;;;3.22;;
59734;SDS011;64362;45.620;4.920;2022-12-29T08:06:30;5.60;;;3.63;;
59734;SDS011;64362;45.620;4.920;2022-12-29T08:08:56;3.97;;;3.05;;
59734;SDS011;64362;45.620;4.920;2022-12-29T08:11:22;4.57;;;3.30;;
59734;SDS011;64362;45.620;4.920;2022-12-29T08:13:47;5.20;;;3.63;;
59734;SDS011;64362;45.620;4.920;2022-12-29T08:16:13;5.78;;;3.65;;
59734;SDS011;64362;45.620;4.920;2022-12-29T08:18:38;4.03;;;3.22;;
59734;SDS011;64362;45.620;4.920;2022-12-29T08:21:04;4.60;;;3.28;;
59734;SDS011;64362;45.620;4.920;2022-12-29T08:23:30;5.20;;;3.30;;
59734;SDS011;64362;45.620;4.920;2022-12-29T08:26:00;4.18;;;3.40;;
59734;SDS011;64362;45.620;4.920;2022-12-29T08:28:26;4.82;;;3.30;;
59734;SDS011;64362;45.620;4.920;2022-12-29T08:30:52;5.18;;;3.38;;
59734;SDS011;64362;45.620;4.920;2022-12-29T08:33:17;4.30;;;3.47;;
59734;SDS011;64362;45.620;4.920;2022-12-29T08:35:43;5.35;;;3.33;;
59734;SDS011;64362;45.620;4.920;2022-12-29T08:38:08;5.55;;;3.33;;
59734;SDS011;64362;45.620;4.920;2022-12-29T08:40:36;6.25;;;3.50;;
59734;SDS011;64362;45.620;4.920;2022-12-29T08:43:01;5.97;;;3.33;;
59734;SDS011;64362;45.620;4.920;2022-12-29T08:45:27;4.75;;;3.20;;
59734;SDS011;64362;45.620;4.920;2022-12-29T08:47:52;5.50;;;3.58;;
59734;SDS011;64362;45.620;4.920;2022-12-29T08:50:18;5.68;;;3.25;;
59734;SDS011;64362;45.620;4.920;2022-12-29T08:52:43;4.05;;;3.13;;
59734;SDS011;64362;45.620;4.920;2022-12-29T08:55:09;4.45;;;3.50;;
59734;SDS011;64362;45.620;4.920;2022-12-29T08:57:35;5.93;;;3.70;;
59734;SDS011;64362;45.620;4.920;2022-12-29T09:00:05;5.35;;;3.30;;
59734;SDS011;64362;45.620;4.920;2022-12-29T09:02:31;4.82;;;3.25;;
59734;SDS011;64362;45.620;4.920;2022-12-29T09:04:56;5.03;;;3.25;;
59734;SDS011;64362;45.620;4.920;2022-12-29T09:07:22;3.95;;;3.05;;
59734;SDS011;64362;45.620;4.920;2022-12-29T09:09:48;5.47;;;3.20;;
59734;SDS011;64362;45.620;4.920;2022-12-29T09:12:14;3.90;;;3.17;;
59734;SDS011;64362;45.620;4.920;2022-12-29T09:14:41;5.00;;;3.20;;
59734;SDS011;64362;45.620;4.920;2022-12-29T09:17:08;5.88;;;3.53;;
59734;SDS011;64362;45.620;4.920;2022-12-29T09:19:52;5.03;;;3.05;;
59734;SDS011;64362;45.620;4.920;2022-12-29T09:22:17;6.35;;;3.42;;
59734;SDS011;64362;45.620;4.920;2022-12-29T09:24:43;4.35;;;3.25;;
59734;SDS011;64362;45.620;4.920;2022-12-29T09:27:08;4.90;;;3.00;;
59734;SDS011;64362;45.620;4.920;2022-12-29T09:29:34;5.65;;;3.63;;
59734;SDS011;64362;45.620;4.920;2022-12-29T09:31:59;5.15;;;3.10;;
59734;SDS011;64362;45.620;4.920;2022-12-29T09:34:25;6.10;;;3.90;;
59734;SDS011;64362;45.620;4.920;2022-12-29T09:36:51;4.40;;;3.10;;
59734;SDS011;64362;45.620;4.920;2022-12-29T09:39:16;5.15;;;3.20;;
59734;SDS011;64362;45.620;4.920;2022-12-29T09:41:43;5.45;;;3.13;;
59734;SDS011;64362;45.620;4.920;2022-12-29T09:47:05;5.70;;;3.53;;
59734;SDS011;64362;45.620;4.920;2022-12-29T09:52:14;5.65;;;3.45;;
59734;SDS011;64362;45.620;4.920;2022-12-29T09:57:19;4.57;;;2.70;;
59734;SDS011;64362;45.620;4.920;2022-12-29T09:59:46;6.35;;;3.38;;
59734;SDS011;64362;45.620;4.920;2022-12-29T10:11:13;7.47;;;3.33;;
59734;SDS011;64362;45.620;4.920;2022-12-29T10:16:59;6.57;;;3.08;;
59734;SDS011;64362;45.620;4.920;2022-12-29T10:24:39;4.30;;;3.33;;
59734;SDS011;64362;45.620;4.920;2022-12-29T10:27:09;4.25;;;3.22;;
59734;SDS011;64362;45.620;4.920;2022-12-29T10:29:37;6.95;;;3.60;;
59734;SDS011;64362;45.620;4.920;2022-12-29T10:32:06;6.47;;;3.38;;
59734;SDS011;64362;45.620;4.920;2022-12-29T10:35:18;6.28;;;3.28;;
59734;SDS011;64362;45.620;4.920;2022-12-29T10:40:27;4.88;;;3.17;;
59734;SDS011;64362;45.620;4.920;2022-12-29T10:42:57;5.43;;;3.35;;
59734;SDS011;64362;45.620;4.920;2022-12-29T10:45:26;3.70;;;3.30;;
59734;SDS011;64362;45.620;4.920;2022-12-29T10:48:00;5.15;;;3.20;;
59734;SDS011;64362;45.620;4.920;2022-12-29T10:50:28;4.55;;;3.10;;
59734;SDS011;64362;45.620;4.920;2022-12-29T10:53:00;5.78;;;3.38;;
59734;SDS011;64362;45.620;4.920;2022-12-29T10:55:29;5.72;;;3.30;;
59734;SDS011;64362;45.620;4.920;2022-12-29T10:57:59;6.32;;;3.40;;
59734;SDS011;64362;45.620;4.920;2022-12-29T11:00:29;5.05;;;3.15;;
59734;SDS011;64362;45.620;4.920;2022-12-29T11:03:00;4.40;;;2.92;;
59734;SDS011;64362;45.620;4.920;2022-12-29T11:05:53;5.63;;;3.20;;
59734;SDS011;64362;45.620;4.920;2022-12-29T11:08:22;6.95;;;3.55;;
59734;SDS011;64362;45.620;4.920;2022-12-29T11:10:58;5.20;;;3.17;;
59734;SDS011;64362;45.620;4.920;2022-12-29T11:13:30;6.43;;;3.42;;
59734;SDS011;64362;45.620;4.920;2022-12-29T11:15:57;4.78;;;2.90;;
59734;SDS011;64362;45.620;4.920;2022-12-29T11:18:38;5.22;;;3.38;;
59734;SDS011;64362;45.620;4.920;2022-12-29T11:21:27;5.65;;;3.40;;
59734;SDS011;64362;45.620;4.920;2022-12-29T11:26:49;4.28;;;3.33;;
59734;SDS011;64362;45.620;4.920;2022-12-29T11:31:50;5.90;;;3.47;;
59734;SDS011;64362;45.620;4.920;2022-12-29T11:34:25;5.68;;;3.05;;
59734;SDS011;64362;45.620;4.920;2022-12-29T11:37:00;6.15;;;3.05;;
59734;SDS011;64362;45.620;4.920;2022-12-29T11:42:03;5.93;;;3.30;;
59734;SDS011;64362;45.620;4.920;2022-12-29T11:44:30;5.38;;;3.85;;
59734;SDS011;64362;45.620;4.920;2022-12-29T11:47:01;4.65;;;3.00;;
59734;SDS011;64362;45.620;4.920;2022-12-29T11:49:27;5.57;;;3.80;;
59734;SDS011;64362;45.620;4.920;2022-12-29T11:51:52;6.18;;;3.50;;
59734;SDS011;64362;45.620;4.920;2022-12-29T11:54:26;4.97;;;3.05;;
59734;SDS011;64362;45.620;4.920;2022-12-29T11:56:55;5.13;;;3.17;;
59734;SDS011;64362;45.620;4.920;2022-12-29T12:04:45;6.22;;;3.25;;
59734;SDS011;64362;45.620;4.920;2022-12-29T12:07:12;7.30;;;3.40;;
59734;SDS011;64362;45.620;4.920;2022-12-29T12:09:54;5.15;;;3.58;;
59734;SDS011;64362;45.620;4.920;2022-12-29T12:12:41;4.68;;;3.50;;
59734;SDS011;64362;45.620;4.920;2022-12-29T12:15:15;6.38;;;3.40;;
59734;SDS011;64362;45.620;4.920;2022-12-29T12:18:00;6.15;;;3.20;;
59734;SDS011;64362;45.620;4.920;2022-12-29T12:26:48;6.50;;;3.13;;
59734;SDS011;64362;45.620;4.920;2022-12-29T12:29:20;5.15;;;3.70;;
59734;SDS011;64362;45.620;4.920;2022-12-29T12:31:54;7.40;;;3.80;;
59734;SDS011;64362;45.620;4.920;2022-12-29T12:34:44;5.38;;;3.45;;
59734;SDS011;64362;45.620;4.920;2022-12-29T12:48:22;6.35;;;3.55;;
59734;SDS011;64362;45.620;4.920;2022-12-29T12:51:17;5.80;;;3.38;;
59734;SDS011;64362;45.620;4.920;2022-12-29T13:00:00;5.75;;;3.17;;
59734;SDS011;64362;45.620;4.920;2022-12-29T13:05:41;5.57;;;3.25;;
59734;SDS011;64362;45.620;4.920;2022-12-29T13:27:14;6.20;;;3.97;;
59734;SDS011;64362;45.620;4.920;2022-12-29T13:38:09;5.72;;;2.78;;
59734;SDS011;64362;45.620;4.920;2022-12-29T13:40:38;5.18;;;3.13;;
59734;SDS011;64362;45.620;4.920;2022-12-29T13:43:06;7.65;;;3.80;;
59734;SDS011;64362;45.620;4.920;2022-12-29T13:45:32;6.38;;;3.55;;
59734;SDS011;64362;45.620;4.920;2022-12-29T13:48:15;5.60;;;3.28;;
59734;SDS011;64362;45.620;4.920;2022-12-29T13:50:43;6.18;;;3.40;;
59734;SDS011;64362;45.620;4.920;2022-12-29T13:56:02;6.60;;;2.83;;
59734;SDS011;64362;45.620;4.920;2022-12-29T13:58:35;5.97;;;3.80;;
59734;SDS011;64362;45.620;4.920;2022-12-29T14:03:54;7.18;;;3.38;;
59734;SDS011;64362;45.620;4.920;2022-12-29T14:08:53;7.57;;;3.60;;
59734;SDS011;64362;45.620;4.920;2022-12-29T14:11:37;5.38;;;3.67;;
59734;SDS011;64362;45.620;4.920;2022-12-29T14:14:20;8.43;;;3.50;;
59734;SDS011;64362;45.620;4.920;2022-12-29T14:16:48;4.85;;;2.60;;
59734;SDS011;64362;45.620;4.920;2022-12-29T14:21:39;5.22;;;3.60;;
59734;SDS011;64362;45.620;4.920;2022-12-29T14:26:53;6.38;;;3.58;;
59734;SDS011;64362;45.620;4.920;2022-12-29T14:31:50;4.32;;;3.35;;
59734;SDS011;64362;45.620;4.920;2022-12-29T14:39:36;5.45;;;3.30;;
59734;SDS011;64362;45.620;4.920;2022-12-29T14:42:05;5.63;;;3.40;;
59734;SDS011;64362;45.620;4.920;2022-12-29T14:44:34;8.48;;;3.55;;
59734;SDS011;64362;45.620;4.920;2022-12-29T14:47:00;5.10;;;3.33;;
59734;SDS011;64362;45.620;4.920;2022-12-29T14:49:32;4.72;;;3.22;;
59734;SDS011;64362;45.620;4.920;2022-12-29T14:52:06;5.13;;;3.55;;
59734;SDS011;64362;45.620;4.920;2022-12-29T14:57:04;4.65;;;3.25;;
59734;SDS011;64362;45.620;4.920;2022-12-29T14:59:31;7.55;;;3.83;;
59734;SDS011;64362;45.620;4.920;2022-12-29T15:01:57;5.93;;;3.47;;
59734;SDS011;64362;45.620;4.920;2022-12-29T15:04:33;6.53;;;3.55;;
59734;SDS011;64362;45.620;4.920;2022-12-29T15:07:00;5.95;;;3.78;;
59734;SDS011;64362;45.620;4.920;2022-12-29T15:09:35;7.15;;;3.70;;
59734;SDS011;64362;45.620;4.920;2022-12-29T15:14:52;5.13;;;3.20;;
59734;SDS011;64362;45.620;4.920;2022-12-29T15:17:25;6.18;;;3.30;;
59734;SDS011;64362;45.620;4.920;2022-12-29T15:19:52;7.18;;;4.07;;
59734;SDS011;64362;45.620;4.920;2022-12-29T15:22:18;4.90;;;3.58;;
59734;SDS011;64362;45.620;4.920;2022-12-29T15:24:44;5.60;;;3.60;;
59734;SDS011;64362;45.620;4.920;2022-12-29T15:27:13;5.63;;;3.83;;
59734;SDS011;64362;45.620;4.920;2022-12-29T15:29:40;6.05;;;3.88;;
59734;SDS011;64362;45.620;4.920;2022-12-29T15:32:15;5.88;;;3.63;;
59734;SDS011;64362;45.620;4.920;2022-12-29T15:34:43;6.38;;;3.50;;
59734;SDS011;64362;45.620;4.920;2022-12-29T15:37:09;6.38;;;3.60;;
59734;SDS011;64362;45.620;4.920;2022-12-29T15:39:40;6.07;;;3.33;;
59734;SDS011;64362;45.620;4.920;2022-12-29T15:42:09;5.47;;;3.70;;
59734;SDS011;64362;45.620;4.920;2022-12-29T15:44:57;5.90;;;3.50;;
59734;SDS011;64362;45.620;4.920;2022-12-29T15:47:24;6.25;;;3.85;;
59734;SDS011;64362;45.620;4.920;2022-12-29T15:49:57;4.97;;;3.67;;
59734;SDS011;64362;45.620;4.920;2022-12-29T15:52:27;5.78;;;3.40;;
59734;SDS011;64362;45.620;4.920;2022-12-29T15:54:53;4.97;;;3.35;;
59734;SDS011;64362;45.620;4.920;2022-12-29T15:57:24;6.93;;;3.58;;
59734;SDS011;64362;45.620;4.920;2022-12-29T15:59:54;5.18;;;3.13;;
59734;SDS011;64362;45.620;4.920;2022-12-29T16:02:21;5.38;;;3.90;;
59734;SDS011;64362;45.620;4.920;2022-12-29T16:04:48;5.70;;;4.00;;
59734;SDS011;64362;45.620;4.920;2022-12-29T16:07:24;5.18;;;3.67;;
59734;SDS011;64362;45.620;4.920;2022-12-29T16:09:56;7.18;;;3.72;;
59734;SDS011;64362;45.620;4.920;2022-12-29T16:12:24;6.32;;;3.83;;
59734;SDS011;64362;45.620;4.920;2022-12-29T16:15:01;5.93;;;3.80;;
59734;SDS011;64362;45.620;4.920;2022-12-29T16:17:29;7.47;;;3.90;;
59734;SDS011;64362;45.620;4.920;2022-12-29T16:20:04;5.85;;;3.90;;
59734;SDS011;64362;45.620;4.920;2022-12-29T16:22:39;7.90;;;3.92;;
59734;SDS011;64362;45.620;4.920;2022-12-29T16:25:17;7.28;;;4.05;;
59734;SDS011;64362;45.620;4.920;2022-12-29T16:27:44;5.88;;;3.85;;
59734;SDS011;64362;45.620;4.920;2022-12-29T16:30:18;7.45;;;4.10;;
59734;SDS011;64362;45.620;4.920;2022-12-29T16:32:47;6.30;;;4.05;;
59734;SDS011;64362;45.620;4.920;2022-12-29T16:35:18;5.25;;;4.05;;
59734;SDS011;64362;45.620;4.920;2022-12-29T16:37:46;7.97;;;3.55;;
59734;SDS011;64362;45.620;4.920;2022-12-29T16:40:23;6.22;;;3.83;;
59734;SDS011;64362;45.620;4.920;2022-12-29T16:43:00;7.00;;;4.00;;
59734;SDS011;64362;45.620;4.920;2022-12-29T16:50:39;4.95;;;3.30;;
59734;SDS011;64362;45.620;4.920;2022-12-29T16:53:15;6.22;;;3.30;;
59734;SDS011;64362;45.620;4.920;2022-12-29T16:55:50;4.95;;;3.67;;
59734;SDS011;64362;45.620;4.920;2022-12-29T16:58:26;6.53;;;3.50;;
59734;SDS011;64362;45.620;4.920;2022-12-29T17:00:57;6.30;;;3.38;;
59734;SDS011;64362;45.620;4.920;2022-12-29T17:06:21;5.53;;;3.30;;
59734;SDS011;64362;45.620;4.920;2022-12-29T17:08:47;6.10;;;3.30;;
59734;SDS011;64362;45.620;4.920;2022-12-29T17:11:27;4.50;;;2.97;;
59734;SDS011;64362;45.620;4.920;2022-12-29T17:14:59;5.05;;;2.97;;
59734;SDS011;64362;45.620;4.920;2022-12-29T17:17:10;5.30;;;2.63;;
59734;SDS011;64362;45.620;4.920;2022-12-29T17:19:39;3.78;;;2.65;;
59734;SDS011;64362;45.620;4.920;2022-12-29T17:22:15;4.80;;;3.08;;
59734;SDS011;64362;45.620;4.920;2022-12-29T17:24:43;4.78;;;2.70;;
59734;SDS011;64362;45.620;4.920;2022-12-29T17:27:09;4.43;;;2.50;;
59734;SDS011;64362;45.620;4.920;2022-12-29T17:30:09;4.97;;;2.40;;
59734;SDS011;64362;45.620;4.920;2022-12-29T17:32:36;4.07;;;2.72;;
59734;SDS011;64362;45.620;4.920;2022-12-29T17:35:02;4.50;;;2.25;;
59734;SDS011;64362;45.620;4.920;2022-12-29T17:39:53;3.95;;;2.60;;
59734;SDS011;64362;45.620;4.920;2022-12-29T17:42:18;3.28;;;2.40;;
59734;SDS011;64362;45.620;4.920;2022-12-29T17:44:44;3.25;;;2.10;;